Tiempo atmosférico en la estación meteorológica de San José del Valle, Cádiz (105 m.)



Fecha
DESCASC
Temp. máxima en grados centígrados (hora)
DESCASC
Temp. mínima en grados centígrados (hora)
DESCASC
Temp. media en grados centígrados
DESCASC
Racha de viento máxima en m/sg (hora)
DESCASC
Velocidad máxima media en intervalos de 10 minutos(hora)
DESCASC
Precipitaciones diarias en mm
DESCASC
Precipitaciones de 00:00 a 06:00 en mm
DESCASC
Precipitaciones de 06:00 a 12:00 en mm
DESCASC
Precipitaciones de 12:00 a 18:00 en mm
DESCASC
Precipitaciones de 18:00 a 24:00 en mm
DESCASC
16-04-2019 26.4 (16:40) 11.4 (07:00) 18.9 8.89 (21:40) 5.83 (21:40) 0 0 0 0 0
15-04-2019 25.2 (14:00) 13.1 (23:59) 19.2 10 (17:40) 4.72 (09:40) 0 0 0 0 0
14-04-2019 27.4 (16:40) 10.4 (00:00) 18.9 5.28 (19:30) 2.78 (19:30) 0 0 0 0 0
13-04-2019 24.7 (16:40) 9 (00:00) 16.9 8.89 (17:50) 3.61 (17:40) 0 0 0 0 0
12-04-2019 23.7 (17:20) 8.9 (00:00) 16.3 6.39 (19:00) 2.78 (19:10) 0 0 0 0 0
11-04-2019 21.2 (19:20) 8.2 (00:00) 14.7 6.39 (16:40) 2.78 (16:00) 0 0 0 0 0
10-04-2019 19.4 (16:40) 7.9 (00:00) 13.6 8.06 (19:20) 3.89 (18:40) 0 0 0 0 0
09-04-2019 18.7 (15:40) 8.3 (00:00) 13.5 10.28 (15:50) 4.44 (17:00) 0 0 0 0 0
08-04-2019 18.9 (14:20) 12 (00:00) 15.4 9.72 (14:20) 4.17 (13:50) 4.4 0 0 4.4 0
07-04-2019 16.5 (14:40) 9.3 (00:00) 12.9 8.89 (16:50) 3.61 (19:50) 16.2 2.4 0 3.8 10
06-04-2019 15.9 (18:10) 7.8 (00:00) 11.8 11.39 (19:00) 5.28 (17:10) 4 0 2.4 1.6 0
05-04-2019 15.5 (15:40) 9.4 (00:00) 12.4 10 (12:50) 3.61 (08:40) 14.8 1.8 13 0 0
04-04-2019 19.8 (15:20) 6.8 (00:00) 13.3 8.89 (19:00) 3.61 (15:30) 0 0 0 0 0
03-04-2019 23.2 (16:20) 9.7 (00:00) 16.5 7.78 (18:20) 2.78 (14:30) 0 0 0 0 0
02-04-2019 22.5 (16:10) 9.3 (00:00) 15.9 5.56 (22:40) 2.78 (22:30) 0 0 0 0 0
01-04-2019 20.4 (15:30) 12.7 (00:00) 16.5 8.89 (17:10) 5.28 (14:40) 1.8 0.2 1.6 0 0
31-03-2019 21.8 (15:30) 12.3 (00:00) 17 6.67 (19:20) 3.06 (19:40) 3.6 0.4 0 3.2 0
30-03-2019 20.3 (13:40) 13.2 (00:00) 16.7 15.83 (01:30) 10.83 (00:30) 5.4 5.4 0 0 0
29-03-2019 18.5 (11:30) 13.8 (00:00) 16.2 18.06 (01:00) 9.17 (01:00) 0 0 0 0 0
28-03-2019 19.8 (15:10) 13.2 (00:00) 16.5 15.56 (09:00) 9.72 (12:00) 0 0 0 0 0
27-03-2019 19.6 (15:20) 14.2 (00:00) 16.9 15.83 (00:30) 10 (12:20) 0 0 0 0 0
26-03-2019 20.5 (11:50) 15.4 (00:00) 17.9 20 (13:00) 12.78 (13:30) 0 0 0 0 0
25-03-2019 21.8 (15:40) 12.7 (00:00) 17.2 12.78 (23:50) 8.33 (17:10) 0 0 0 0 0
24-03-2019 20.2 (16:10) 13.4 (00:00) 16.8 17.5 (01:20) 11.11 (01:20) 0 0 0 0 0
23-03-2019 19.3 (15:20) 13.9 (00:00) 16.6 15.56 (13:50) 9.72 (13:50) 0 0 0 0 0
22-03-2019 20.7 (14:30) 9.6 (00:00) 15.2 12.5 (16:20) 7.78 (18:30) 0 0 0 0 0
21-03-2019 19.3 (15:30) 9.6 (00:00) 14.4 16.67 (02:20) 8.89 (02:20) 0 0 0 0 0
20-03-2019 18.6 (13:50) 10.8 (00:00) 14.7 13.89 (21:20) 7.22 (17:50) 0 0 0 0 0
19-03-2019 22.7 (15:20) 10.3 (00:00) 16.5 10.83 (16:30) 4.17 (16:20) 0 0 0 0 0

Gráficas

Temp. máximas Temp. mínimas Temp. medias Precipitaciones Rachas de viento máximas Velocidades máximas media en intervalos de 10 minutos

Datos horarios

Fecha y hora oficial Temperatura (ºC) Velocidad del viento (km/h) Dirección del viento Racha (km/h) Dirección de racha Precipitación (mm) Presión (hPa) Tendencia (hPa) Humedad (%)
2019-04-17 23:00:00 15.7 4 Este 12 Nordeste 0 -- -- 67
2019-04-17 22:00:00 15.7 4 Nordeste 12 Sudeste 0 -- -- 69
2019-04-17 21:00:00 15.1 6 Sudeste 11 Este 0 -- -- 73
2019-04-17 20:00:00 15.1 5 Sudoeste 19 Sudoeste 0 -- -- 67
2019-04-17 19:00:00 18.1 7 Sur 27 Sur 0 -- -- 56
2019-04-17 18:00:00 19.6 14 Sur 28 Sur 0 -- -- 56
2019-04-17 17:00:00 19.8 15 Sur 30 Sudeste 0 -- -- 55
2019-04-17 16:00:00 20.3 13 Sudeste 40 Este 0 -- -- 55
2019-04-17 15:00:00 19.9 24 Sudeste 35 Sudeste 0 -- -- 49
2019-04-17 14:00:00 19.6 21 Sudeste 35 Sudeste 0 -- -- 52
2019-04-17 13:00:00 20.1 23 Sudeste 36 Sudeste 0 -- -- 53
2019-04-17 12:00:00 19.4 23 Sudeste 45 Sudeste 0 -- -- 54
2019-04-17 11:00:00 19 25 Sudeste 42 Sudeste 0 -- -- 54
2019-04-17 10:00:00 19.5 13 Sudeste 27 Este 0 -- -- 51
2019-04-17 09:00:00 18.7 14 Sudeste 35 Sudeste 0 -- -- 46
2019-04-17 08:00:00 18.7 9 Sudeste 45 Sudeste 0 -- -- 40
2019-04-17 07:00:00 19.4 31 Sudeste 51 Sudeste 0 -- -- 39
2019-04-17 06:00:00 19.3 15 Sudeste 32 Sudeste 0 -- -- 36
2019-04-17 05:00:00 18.9 12 Sudeste 23 Este 0 -- -- 39
2019-04-17 04:00:00 19.1 13 Este 30 Sudeste 0 -- -- 43
2019-04-17 03:00:00 19.6 13 Sudeste 35 Sudeste 0 -- -- 36
2019-04-17 02:00:00 19.3 22 Sudeste 32 Sudeste 0 -- -- 39
2019-04-17 01:00:00 18.5 10 Sudeste 24 Sudeste 0 -- -- 40
2019-04-17 00:00:00 17.7 6 Sudeste 18 Sudeste 0 -- -- 40
2019-04-16 23:00:00 19 5 Sur 30 Sudeste 0 -- -- 36
2019-04-16 22:00:00 19.5 14 Este 32 Este 0 -- -- 35
2019-04-16 21:00:00 19.7 8 Este 24 Sudeste 0 -- -- 41
2019-04-16 20:00:00 21.2 4 Nordeste 20 Sur 0 -- -- 41
2019-04-16 19:00:00 24.9 12 Sur 27 Sur 0 -- -- 27
2019-04-16 18:00:00 26.1 13 Sur 27 Sur 0 -- -- 26
2019-04-16 17:00:00 26.4 15 Sur 28 Sur 0 -- -- 30
2019-04-16 16:00:00 25.8 10 Sudeste 17 Sudeste 0 -- -- 31
2019-04-16 15:00:00 24.4 4 Este 12 Este 0 -- -- 36
2019-04-16 14:00:00 22.8 4 Este 9 Nordeste 0 -- -- 53
2019-04-16 13:00:00 21 4 Este 10 Este 0 -- -- 62
2019-04-16 12:00:00 18.8 5 Sudeste 8 Sudeste 0 -- -- 68
2019-04-16 11:00:00 16.9 4 Este 6 Este 0 -- -- 80
2019-04-16 10:00:00 14.3 3 Sudeste 8 Este 0 -- -- 88
2019-04-16 09:00:00 12.3 2 Este 8 Nordeste 0 -- -- 97
2019-04-16 08:00:00 11.4 0 Calma 5 Sur 0 -- -- 96
2019-04-16 07:00:00 11.4 0 Calma 6 Sudeste 0 -- -- 95
2019-04-16 06:00:00 11.8 0 Calma 4 Norte 0 -- -- 94
2019-04-16 05:00:00 12.3 0 Calma 10 Sur 0 -- -- 93
2019-04-16 04:00:00 12.6 0 Calma 8 Sudeste 0 -- -- 92
2019-04-16 03:00:00 12.6 0 Calma 8 Sur 0 -- -- 92
2019-04-16 02:00:00 13.1 4 Sur 8 Sur 0 -- -- 90
2019-04-16 01:00:00 13.2 2 Sudoeste 12 Sudoeste 0 -- -- 89
2019-04-16 00:00:00 13.1 3 Sudoeste 8 Sudoeste 0 -- -- 88
2019-04-15 23:00:00 13.7 2 Sudoeste 12 Sur 0 -- -- 83
2019-04-15 22:00:00 15.2 4 Sudoeste 18 Sur 0 -- -- 75
2019-04-15 21:00:00 16.7 9 Sur 27 Sudoeste 0 -- -- 67
2019-04-15 20:00:00 18.5 9 Sur 30 Sudoeste 0 -- -- 60
2019-04-15 19:00:00 20.2 16 Sudoeste 35 Sudoeste 0 -- -- 52
2019-04-15 18:00:00 21.8 12 Sur 36 Sur 0 -- -- 43
2019-04-15 17:00:00 23.9 13 Sudoeste 29 Sudoeste 0 -- -- 30
2019-04-15 16:00:00 24.6 13 Sudoeste 23 Sur 0 -- -- 32
2019-04-15 15:00:00 23.4 14 Sudoeste 32 Sudoeste 0 -- -- 41
2019-04-15 14:00:00 25.2 10 Sur 22 Sur 0 -- -- 27
2019-04-15 13:00:00 24 11 Sur 22 Sur 0 -- -- 33
2019-04-15 12:00:00 22.5 7 Sur 21 Sur 0 -- -- 37
2019-04-15 11:00:00 20.8 7 Sudoeste -- -- -- -- -- 45
2019-04-15 10:00:00 17.3 12 Oeste 28 Oeste 0 -- -- 46
2019-04-15 09:00:00 16.6 0 Calma 5 Norte 0 -- -- 51
2019-04-15 08:00:00 15.3 0 Calma 6 Sudoeste 0 -- -- 50
2019-04-15 07:00:00 15.4 0 Calma 6 Sudeste 0 -- -- 55
2019-04-15 06:00:00 15.6 0 Calma 5 Oeste 0 -- -- 50
2019-04-15 05:00:00 14.5 0 Calma 4 Este 0 -- -- 67
2019-04-15 04:00:00 14.5 0 Calma 4 Oeste 0 -- -- 85
2019-04-15 03:00:00 15.4 0 Calma 4 Sudeste 0 -- -- 87
2019-04-15 02:00:00 16.3 0 Calma 4 Nordeste 0 -- -- 86
2019-04-15 01:00:00 17.4 0 Calma 2 Nordeste 0 -- -- 78
2019-04-15 00:00:00 18.3 0 Calma 5 Norte 0 -- -- 74
2019-04-14 23:00:00 19.1 0 Calma 6 Norte 0 -- -- 66
2019-04-14 22:00:00 20.1 0 Calma 6 Sudoeste 0 -- -- 55
2019-04-14 21:00:00 22.1 5 Oeste 13 Sudoeste 0 -- -- 49
2019-04-14 20:00:00 23.7 7 Sudoeste 19 Sudoeste 0 -- -- 44
2019-04-14 19:00:00 26.3 0 Calma 8 Sudeste 0 -- -- 33
2019-04-14 18:00:00 27.1 3 Este 10 Este 0 -- -- 34
2019-04-14 17:00:00 26.9 5 Sudeste 8 Sudeste 0 -- -- 36
2019-04-14 16:00:00 27.1 5 Sudeste 13 Sudeste 0 -- -- 35
2019-04-14 15:00:00 26.4 5 Este 9 Este 0 -- -- 37
2019-04-14 14:00:00 25 6 Noroeste 12 Noroeste 0 -- -- 30
2019-04-14 13:00:00 23 6 Norte 11 Norte 0 -- -- 37
2019-04-14 12:00:00 20.9 4 Noroeste 12 Norte 0 -- -- 40
2019-04-14 11:00:00 17.3 4 Este 5 Sudeste 0 -- -- 54
2019-04-14 10:00:00 13.9 4 Sur 6 Norte 0 -- -- 71
2019-04-14 09:00:00 11.7 2 Nordeste 10 Sudeste 0 -- -- 83
2019-04-14 08:00:00 10.5 0 Calma 4 Este 0 -- -- 85
2019-04-14 07:00:00 10.8 2 Sur 5 Este 0 -- -- 82
2019-04-14 06:00:00 10.5 0 Calma 5 Sudeste 0 -- -- 85
2019-04-14 05:00:00 10.9 0 Calma 3 Sudeste 0 -- -- 88
2019-04-14 04:00:00 11.2 0 Calma 8 Este 0 -- -- 87
2019-04-14 03:00:00 11.3 0 Calma 4 Este 0 -- -- 86
2019-04-14 02:00:00 12.1 0 Calma 4 Nordeste 0 -- -- 87
2019-04-14 01:00:00 12.8 0 Calma 3 Sur 0 -- -- 87
2019-04-14 00:00:00 13.8 0 Calma 5 Oeste 0 -- -- 82
2019-04-13 23:00:00 14.9 3 Oeste 6 Oeste 0 -- -- 68
2019-04-13 22:00:00 15.5 3 Oeste 15 Sudoeste 0 -- -- 56
2019-04-13 21:00:00 17.8 7 Sudoeste 16 Sudoeste 0 -- -- 46
2019-04-13 20:00:00 20.1 8 Sudoeste 21 Sudoeste 0 -- -- 39
2019-04-13 19:00:00 21.9 11 Sudoeste 28 Sudoeste 0 -- -- 34
2019-04-13 18:00:00 22.7 13 Sudoeste 32 Sudoeste 0 -- -- 29
2019-04-13 17:00:00 24.4 10 Sur 27 Sur 0 -- -- 30
2019-04-13 16:00:00 24.4 5 Sur 19 Norte 0 -- -- 23
2019-04-13 15:00:00 23.5 3 Este 14 Noroeste 0 -- -- 28
2019-04-13 14:00:00 22.9 5 Este 13 Sudoeste 0 -- -- 39
2019-04-13 13:00:00 21.2 6 Sudoeste 18 Sur 0 -- -- 40
2019-04-13 12:00:00 18.7 5 Sur 10 Sudeste 0 -- -- 58
2019-04-13 11:00:00 15 3 Sudeste 5 Sudeste 0 -- -- 68
2019-04-13 10:00:00 12.3 3 Este 5 Sudeste 0 -- -- 78
2019-04-13 09:00:00 9.8 2 Sudeste 4 Este 0 -- -- 87
2019-04-13 08:00:00 9 0 Calma 3 Nordeste 0 -- -- 90
2019-04-13 07:00:00 9.3 0 Calma 3 Nordeste 0 -- -- 88
2019-04-13 06:00:00 9.5 0 Calma 4 Este 0 -- -- 88
2019-04-13 05:00:00 10 0 Calma 3 Nordeste 0 -- -- 86
2019-04-13 04:00:00 10.5 0 Calma 3 Sudeste 0 -- -- 82
2019-04-13 03:00:00 10.9 0 Calma 4 Nordeste 0 -- -- 82
2019-04-13 02:00:00 11.5 0 Calma 4 Noroeste 0 -- -- 82
2019-04-13 01:00:00 12.5 0 Calma 5 Norte 0 -- -- 83
2019-04-13 00:00:00 13 2 Norte 5 Oeste 0 -- -- 81
2019-04-12 23:00:00 14 3 Oeste 14 Sudoeste 0 -- -- 61
2019-04-12 22:00:00 15.3 0 Calma 11 Sudoeste 0 -- -- 45
2019-04-12 21:00:00 17.4 3 Sur 9 Sur 0 -- -- 38
2019-04-12 20:00:00 19.7 4 Sudeste 19 Sudoeste 0 -- -- 32
2019-04-12 19:00:00 22.2 9 Sur 23 Sudoeste 0 -- -- 29
2019-04-12 18:00:00 23.2 8 Noroeste 17 Noroeste 0 -- -- 24
2019-04-12 17:00:00 23.4 6 Noroeste 18 Oeste 0 -- -- 22
2019-04-12 16:00:00 22.1 6 Noroeste 17 Noroeste 0 -- -- 24
2019-04-12 15:00:00 22.1 5 Norte 19 Oeste 0 -- -- 27
2019-04-12 14:00:00 22.2 6 Norte 18 Norte 0 -- -- 28
2019-04-12 13:00:00 20.7 4 Noroeste 11 Noroeste 0 -- -- 41
2019-04-12 12:00:00 18.3 3 Este 8 Oeste 0 -- -- 60
2019-04-12 11:00:00 15.2 3 Sudeste 5 Este 0 -- -- 65
2019-04-12 10:00:00 11.9 3 Sudeste 5 Este 0 -- -- 84
2019-04-12 09:00:00 10.1 3 Este 7 Sudeste 0 -- -- 92
2019-04-12 08:00:00 9 0 Calma 4 Este 0 -- -- 95
2019-04-12 07:00:00 9.6 0 Calma 4 Sudeste 0 -- -- 95
2019-04-12 06:00:00 10 0 Calma 3 Norte 0 -- -- 94
2019-04-12 05:00:00 10.6 0 Calma 3 Este 0 -- -- 93
2019-04-12 04:00:00 10.9 0 Calma 3 Oeste 0 -- -- 92
2019-04-12 03:00:00 11.4 0 Calma 6 Nordeste 0 -- -- 92
2019-04-12 02:00:00 11.7 0 Calma 5 Nordeste 0 -- -- 92
2019-04-12 01:00:00 12 0 Calma 6 Sur 0 -- -- 91
2019-04-12 00:00:00 12.7 2 Sur 10 Sur 0 -- -- 87
2019-04-11 23:00:00 13.2 4 Sudoeste 14 Sudoeste 0 -- -- 88
2019-04-11 22:00:00 13.8 8 Sudoeste 14 Sudoeste 0 -- -- 82
2019-04-11 21:00:00 15.4 6 Sudoeste 20 Sudoeste 0 -- -- 65
2019-04-11 20:00:00 18.7 8 Sudoeste 19 Sudoeste 0 -- -- 48
2019-04-11 19:00:00 21 6 Noroeste 19 Noroeste 0 -- -- 30
2019-04-11 18:00:00 20.7 6 Noroeste 18 Noroeste 0 -- -- 31
2019-04-11 17:00:00 20.3 7 Norte 23 Norte 0 -- -- 35
2019-04-11 16:00:00 20.3 10 Norte 22 Noroeste 0 -- -- 37
2019-04-11 15:00:00 19.2 9 Noroeste 18 Norte 0 -- -- 45
2019-04-11 14:00:00 18.9 7 Norte 18 Noroeste 0 -- -- 52
2019-04-11 13:00:00 17.7 5 Norte 14 Noroeste 0 -- -- 59
2019-04-11 12:00:00 16.1 5 Norte 15 Nordeste 0 -- -- 64
2019-04-11 11:00:00 13.6 4 Sudeste 7 Este 0 -- -- 79
2019-04-11 10:00:00 10.5 3 Sudeste 5 Sudeste 0 -- -- 95
2019-04-11 09:00:00 8.8 2 Este 4 Este 0 -- -- 97
2019-04-11 08:00:00 8.2 0 Calma 3 Nordeste 0 -- -- 96
2019-04-11 07:00:00 8.4 0 Calma 3 Sudeste 0 -- -- 96
2019-04-11 06:00:00 8.9 0 Calma 4 Nordeste 0 -- -- 95
2019-04-11 05:00:00 9.7 0 Calma 5 Sudeste 0 -- -- 95
2019-04-11 04:00:00 10 0 Calma 4 Nordeste 0 -- -- 92
2019-04-11 03:00:00 10.3 0 Calma 4 Noroeste 0 -- -- 89
2019-04-11 02:00:00 10.7 0 Calma 6 Sudoeste 0 -- -- 88
2019-04-11 01:00:00 11.3 0 Calma 8 Sudoeste 0 -- -- 85
2019-04-11 00:00:00 12 4 Oeste 8 Oeste 0 -- -- 87
2019-04-10 23:00:00 12.4 3 Oeste 6 Sur 0 -- -- 87
2019-04-10 22:00:00 13.1 2 Sudoeste 10 Sur 0 -- -- 88
2019-04-10 21:00:00 15 8 Sur 22 Sur 0 -- -- 75
2019-04-10 20:00:00 16.3 11 Sur 29 Sudoeste 0 -- -- 65
2019-04-10 19:00:00 18.2 14 Sur 28 Sudoeste 0 -- -- 59
2019-04-10 18:00:00 19.3 6 Nordeste 22 Sur 0 -- -- 44
2019-04-10 17:00:00 18.7 8 Noroeste 21 Norte 0 -- -- 45
2019-04-10 16:00:00 18.5 11 Noroeste 29 Noroeste 0 -- -- 45
2019-04-10 15:00:00 17.7 8 Noroeste 25 Norte 0 -- -- 48
2019-04-10 14:00:00 17.5 9 Noroeste 28 Norte 0 -- -- 52
2019-04-10 13:00:00 16.3 6 Norte 17 Norte 0 -- -- 55
2019-04-10 12:00:00 14.8 4 Norte 13 Noroeste 0 -- -- 68
2019-04-10 11:00:00 13.3 5 Norte 12 Noroeste 0 -- -- 76
2019-04-10 10:00:00 11 4 Noroeste 8 Norte 0 -- -- 85
2019-04-10 09:00:00 8.8 3 Norte 5 Noroeste 0 -- -- 97
2019-04-10 08:00:00 7.9 0 Calma 5 Noroeste 0 -- -- 96
2019-04-10 07:00:00 8 0 Calma 6 Oeste 0 -- -- 95
2019-04-10 06:00:00 8.7 2 Oeste 8 Noroeste 0 -- -- 94
2019-04-10 05:00:00 8.7 0 Calma 4 Norte 0 -- -- 94
2019-04-10 04:00:00 9.5 0 Calma 8 Oeste 0 -- -- 88
2019-04-10 03:00:00 9.9 2 Oeste 7 Oeste 0 -- -- 89
2019-04-10 02:00:00 10.5 2 Sudeste 6 Oeste 0 -- -- 89
2019-04-10 01:00:00 11.4 0 Calma 12 Sudoeste 0 -- -- 91
2019-04-10 00:00:00 11.4 4 Sudoeste 10 Sur 0 -- -- 92
2019-04-09 23:00:00 11.6 3 Sur 5 Sudoeste 0 -- -- 91
2019-04-09 22:00:00 12 0 Calma 8 Sur 0 -- -- 88
2019-04-09 21:00:00 14.1 4 Sur 24 Sur 0 -- -- 79
2019-04-09 20:00:00 15.3 10 Sur 26 Sudoeste 0 -- -- 69
2019-04-09 19:00:00 17 10 Sur 30 Sur 0 -- -- 65
2019-04-09 18:00:00 18.2 14 Sudoeste 36 Sudoeste 0 -- -- 52
2019-04-09 17:00:00 18.4 16 Sur 33 Sur 0 -- -- 58
2019-04-09 16:00:00 18.4 14 Sur 37 Sudoeste 0 -- -- 57
2019-04-09 15:00:00 17.9 6 Este 20 Noroeste 0 -- -- 61
2019-04-09 14:00:00 18 6 Nordeste 21 Norte 0 -- -- 58
2019-04-09 13:00:00 17.7 7 Norte 23 Norte 0 -- -- 59
2019-04-09 12:00:00 15.4 3 Sur 13 Sudoeste 0 -- -- 73
2019-04-09 11:00:00 12.3 3 Este 6 Este 0 -- -- 87
2019-04-09 10:00:00 10.1 2 Este 5 Nordeste 0 -- -- 96
2019-04-09 09:00:00 8.9 0 Calma 4 Este 0 -- -- 98
2019-04-09 08:00:00 8.3 0 Calma 3 Este 0 -- -- 97
2019-04-09 07:00:00 8.7 0 Calma 3 Sudeste 0 -- -- 97
2019-04-09 06:00:00 9 0 Calma 4 Noroeste 0 -- -- 96
2019-04-09 05:00:00 9.2 0 Calma 4 Norte 0 -- -- 96
2019-04-09 04:00:00 9.5 0 Calma 3 Este 0 -- -- 95
2019-04-09 03:00:00 10.4 0 Calma 6 Sudoeste 0 -- -- 95
2019-04-09 02:00:00 11 2 Sudoeste 9 Sur 0 -- -- 94
2019-04-09 01:00:00 11.6 5 Sur 10 Sur 0 -- -- 94
2019-04-09 00:00:00 12 2 Sur 9 Sudoeste 0 -- -- 90
2019-04-08 23:00:00 13.2 4 Sur 13 Sur 0 -- -- 90
2019-04-08 22:00:00 13.8 6 Sur 23 Sur 0 -- -- 85
2019-04-08 21:00:00 14.5 8 Sur 17 Sur 0 -- -- 89
2019-04-08 20:00:00 15.1 9 Sur 22 Sudoeste 0 -- -- 86
2019-04-08 19:00:00 15.5 9 Sudoeste 26 Sur 0 -- -- 85
2019-04-08 18:00:00 15.2 9 Sur 21 Sudoeste 0.2 -- -- 90
2019-04-08 17:00:00 14.2 9 Sur 21 Sur 1.4 -- -- 92
2019-04-08 16:00:00 14.8 7 Sur 28 Sudoeste 2.4 -- -- 91
2019-04-08 15:00:00 16.9 9 Sur 35 Sur 0.4 -- -- 80
2019-04-08 14:00:00 18.3 15 Sur 29 Sur 0 -- -- 69
2019-04-08 13:00:00 17.4 12 Sur 29 Sudoeste 0 -- -- 75
2019-04-08 12:00:00 17.4 12 Sudoeste 26 Sur 0 -- -- 76
2019-04-08 11:00:00 16.2 9 Sur 21 Sudoeste 0 -- -- 88
2019-04-08 10:00:00 14.3 6 Sudoeste 14 Oeste 0 -- -- 95
2019-04-08 09:00:00 13.1 3 Sur 9 Sur 0 -- -- 97
2019-04-08 08:00:00 12.6 2 Sudoeste 9 Sudoeste 0 -- -- 96
2019-04-08 07:00:00 13.4 4 Sur 12 Sur 0 -- -- 96
2019-04-08 06:00:00 13.8 5 Sur 10 Sur 0 -- -- 96
2019-04-08 05:00:00 13.7 4 Sur 13 Sur 0 -- -- 96
2019-04-08 04:00:00 13.8 6 Sur 15 Sur 0 -- -- 96
2019-04-08 03:00:00 13.9 5 Sur 14 Sudoeste 0 -- -- 96
2019-04-08 02:00:00 13.9 5 Sur 16 Sudoeste 0 -- -- 96
2019-04-08 01:00:00 14 5 Sur 13 Sur 0 -- -- 96
2019-04-08 00:00:00 14.1 5 Sur 13 Sur 0 -- -- 97
2019-04-07 23:00:00 13.9 6 Sur 15 Sur 0 -- -- 96
2019-04-07 22:00:00 13.5 3 Sur 12 Sur 0 -- -- 95
2019-04-07 21:00:00 13.7 3 Sudoeste 18 Sur 0.6 -- -- 96
2019-04-07 20:00:00 14 9 Sur 28 Sur 7.8 -- -- 95
2019-04-07 19:00:00 14.5 10 Sur 21 Sur 1.6 -- -- 95
2019-04-07 18:00:00 14.1 9 Sur 23 Sur 3 -- -- 94
2019-04-07 17:00:00 14.8 13 Sudoeste 32 Sudoeste 0.8 -- -- 87
2019-04-07 16:00:00 15 11 Sur 28 Sudoeste 0 -- -- 81
2019-04-07 15:00:00 16.3 8 Sur 28 Sudoeste 0 -- -- 64
2019-04-07 14:00:00 15.8 8 Sur 23 Sur 0 -- -- 68
2019-04-07 13:00:00 15.4 5 Sur 17 Sur 0 -- -- 71
2019-04-07 12:00:00 14.5 4 Este 19 Sudoeste 0 -- -- 77
2019-04-07 11:00:00 14.4 4 Sur 10 Sudoeste 0 -- -- 78
2019-04-07 10:00:00 12.2 3 Sur 6 Sur 0 -- -- 90
2019-04-07 09:00:00 10.4 0 Calma 5 Sudoeste 0 -- -- 95
2019-04-07 08:00:00 9.5 0 Calma 8 Noroeste 0 -- -- 95
2019-04-07 07:00:00 9.6 5 Noroeste 10 Noroeste 0 -- -- 95
2019-04-07 06:00:00 10 0 Calma 9 Sudoeste 0.4 -- -- 93
2019-04-07 05:00:00 9.7 0 Calma 17 Sur 0.6 -- -- 94
2019-04-07 04:00:00 10.5 8 Sur 21 Sur 1.2 -- -- 92
2019-04-07 03:00:00 10.6 0 Calma 13 Sur 0 -- -- 89
2019-04-07 02:00:00 11 2 Oeste 15 Sur 0.2 -- -- 89
2019-04-07 01:00:00 11.8 4 Sudoeste 13 Sur 0 -- -- 78
2019-04-07 00:00:00 12.3 3 Norte 10 Sur 0 -- -- 75
2019-04-06 23:00:00 12.6 0 Calma 14 Sur 0 -- -- 75
2019-04-06 22:00:00 12.9 5 Sur 17 Sudeste 0 -- -- 74
2019-04-06 21:00:00 13.2 5 Sur 28 Sudoeste 0 -- -- 69
2019-04-06 20:00:00 14.2 13 Sur 35 Sudoeste 0 -- -- 64
2019-04-06 19:00:00 15.5 16 Sur 41 Sudoeste 0 -- -- 58
2019-04-06 18:00:00 15.7 17 Sur 39 Sur 0.2 -- -- 60
2019-04-06 17:00:00 14.8 13 Sur 33 Sur 0 -- -- 65
2019-04-06 16:00:00 13.9 13 Sur 30 Sur 0.6 -- -- 75
2019-04-06 15:00:00 15.1 16 Sudoeste 32 Sur 0 -- -- 61
2019-04-06 14:00:00 14.3 12 Sudoeste 25 Sudoeste 0.4 -- -- 68
2019-04-06 13:00:00 13.7 5 Nordeste 20 Sur 0.4 -- -- 75
2019-04-06 12:00:00 12.1 6 Sudoeste 26 Sur 0 -- -- 84
2019-04-06 11:00:00 12 8 Sur 14 Sudoeste 0 -- -- 85
2019-04-06 10:00:00 10.1 7 Sur 13 Sur 1.6 -- -- 93
2019-04-06 09:00:00 8.7 0 Calma 4 Oeste 0 -- -- 96
2019-04-06 08:00:00 8.4 0 Calma 20 Sur 0.8 -- -- 92
2019-04-06 07:00:00 8.8 5 Sudoeste 23 Sur 0 -- -- 91
2019-04-06 06:00:00 7.8 4 Sur 14 Sudoeste 0 -- -- 91
2019-04-06 05:00:00 8 4 Sudoeste 12 Sudoeste 0 -- -- 91
2019-04-06 04:00:00 8.3 0 Calma 4 Oeste 0 -- -- 91
2019-04-06 03:00:00 8 0 Calma 4 Norte 0 -- -- 90
2019-04-06 02:00:00 7.8 2 Sur 6 Sur 0 -- -- 87
2019-04-06 01:00:00 8.1 2 Sudoeste 8 Sur 0 -- -- 88
2019-04-06 00:00:00 9.4 4 Sur 7 Sudeste 0 -- -- 81
2019-04-05 23:00:00 10.5 0 Calma 9 Sur 0 -- -- 73
2019-04-05 22:00:00 11.4 4 Norte 20 Noroeste 0 -- -- 64
2019-04-05 21:00:00 12.1 3 Noroeste 20 Sudeste 0 -- -- 69
2019-04-05 20:00:00 12.8 5 Sudeste 19 Sudoeste 0 -- -- 66
2019-04-05 19:00:00 13.8 8 Sur 26 Sur 0 -- -- 59
2019-04-05 18:00:00 14.5 12 Sur 26 Sur 0 -- -- 52
2019-04-05 17:00:00 14.2 8 Sudeste 27 Sudoeste 0 -- -- 56
2019-04-05 16:00:00 14.7 8 Este 23 Sudoeste 0 -- -- 55
2019-04-05 15:00:00 13.9 6 Sur 21 Noroeste 0 -- -- 61
2019-04-05 14:00:00 13.3 5 Norte 35 Noroeste 0 -- -- 62
2019-04-05 13:00:00 12.4 8 Noroeste 36 Norte 0 -- -- 75
2019-04-05 12:00:00 11.3 4 Norte 33 Sudoeste 1 -- -- 89
2019-04-05 11:00:00 12.8 11 Sur 32 Sur 0 -- -- 88
2019-04-05 10:00:00 11.3 12 Sur 26 Sur 0.2 -- -- 93
2019-04-05 09:00:00 10.4 6 Sudoeste 25 Sur 1.8 -- -- 92
2019-04-05 08:00:00 11 13 Sur 25 Sudoeste 5.2 -- -- 93
2019-04-05 07:00:00 11 7 Sudoeste 22 Sudoeste 4.8 -- -- 94
2019-04-05 06:00:00 10.8 0 Calma 12 Sur 1.2 -- -- 92
2019-04-05 05:00:00 11.1 4 Oeste 10 Oeste 0.6 -- -- 83
2019-04-05 04:00:00 11.1 4 Sur 14 Sur 0 -- -- 77
2019-04-05 03:00:00 10.7 4 Sur 9 Sur 0 -- -- 83
2019-04-05 02:00:00 10.7 3 Sudoeste 14 Sur 0 -- -- 68
2019-04-05 01:00:00 11 5 Sur 11 Sudoeste 0 -- -- 65
2019-04-05 00:00:00 11 6 Sur 13 Sur 0 -- -- 60
2019-04-04 23:00:00 10.8 6 Sur 12 Sur 0 -- -- 53
2019-04-04 22:00:00 11 4 Sudoeste 11 Sur 0 -- -- 52
2019-04-04 21:00:00 12.8 7 Sur 23 Sudoeste 0 -- -- 44
2019-04-04 20:00:00 14.5 9 Sur 27 Sudoeste 0 -- -- 34
2019-04-04 19:00:00 17.1 12 Sudoeste 32 Sudoeste 0 -- -- 28
2019-04-04 18:00:00 18 9 Sur 27 Sudoeste 0 -- -- 27
2019-04-04 17:00:00 18.7 10 Sudoeste 27 Oeste 0 -- -- 30
2019-04-04 16:00:00 19.6 9 Sudoeste 27 Sur 0 -- -- 26
2019-04-04 15:00:00 19.4 6 Sudoeste 25 Sudeste 0 -- -- 25
2019-04-04 14:00:00 18.4 6 Sudoeste 19 Sur 0 -- -- 28
2019-04-04 13:00:00 17.6 6 Sudoeste 16 Sudoeste 0 -- -- 30
2019-04-04 12:00:00 15.7 6 Noroeste 11 Noroeste 0 -- -- 42
2019-04-04 11:00:00 12.8 4 Sudeste 6 Este 0 -- -- 60
2019-04-04 10:00:00 9.9 3 Este 7 Sudeste 0 -- -- 81
2019-04-04 09:00:00 7.9 3 Este 8 Sudeste 0 -- -- 89
2019-04-04 08:00:00 7 2 Noroeste 5 Oeste 0 -- -- 75
2019-04-04 07:00:00 7.4 0 Calma 5 Oeste 0 -- -- 73
2019-04-04 06:00:00 8.5 2 Noroeste 6 Oeste 0 -- -- 68
2019-04-04 05:00:00 8.5 0 Calma 5 Norte 0 -- -- 69
2019-04-04 04:00:00 9 3 Norte 8 Nordeste 0 -- -- 68
2019-04-04 03:00:00 10.2 0 Calma 13 Oeste 0 -- -- 67
2019-04-04 02:00:00 11.1 5 Oeste 9 Oeste 0 -- -- 69
2019-04-04 01:00:00 11 0 Calma 4 Oeste 0 -- -- 87
2019-04-04 00:00:00 11.5 0 Calma 7 Sur 0 -- -- 83
2019-04-03 23:00:00 12.3 0 Calma 5 Sur 0 -- -- 70
2019-04-03 22:00:00 14 2 Sudoeste 15 Sudoeste 0 -- -- 55
2019-04-03 21:00:00 16.4 3 Este 9 Sur 0 -- -- 45
2019-04-03 20:00:00 18.3 7 Sur 19 Noroeste 0 -- -- 34
2019-04-03 19:00:00 20.6 6 Este 28 Noroeste 0 -- -- 33
2019-04-03 18:00:00 21.8 7 Noroeste 26 Noroeste 0 -- -- 27
2019-04-03 17:00:00 22.8 9 Noroeste 23 Noroeste 0 -- -- 26
2019-04-03 16:00:00 23.1 7 Noroeste 20 Noroeste 0 -- -- 31
2019-04-03 15:00:00 23.1 9 Sudoeste 21 Sur 0 -- -- 33
2019-04-03 14:00:00 22.2 4 Nordeste 15 Este 0 -- -- 38
2019-04-03 13:00:00 21.5 5 Norte 15 Norte 0 -- -- 46
2019-04-03 12:00:00 18.7 4 Sudeste 6 Este 0 -- -- 68
2019-04-03 11:00:00 15.9 4 Este 6 Este 0 -- -- 71
2019-04-03 10:00:00 12.9 3 Sudeste 8 Este 0 -- -- 84
2019-04-03 09:00:00 10.7 3 Sudeste 6 Este 0 -- -- 96
2019-04-03 08:00:00 9.8 0 Calma 5 Nordeste 0 -- -- 95
2019-04-03 07:00:00 10.1 0 Calma 5 Este 0 -- -- 95
2019-04-03 06:00:00 10.4 0 Calma 4 Norte 0 -- -- 95
2019-04-03 05:00:00 10.9 0 Calma 7 Este 0 -- -- 94
2019-04-03 04:00:00 11.4 0 Calma 4 Este 0 -- -- 94
2019-04-03 03:00:00 12.3 0 Calma 4 Norte 0 -- -- 93
2019-04-03 02:00:00 13 0 Calma 6 Sur 0 -- -- 91
2019-04-03 01:00:00 13.5 3 Norte 6 Sur 0 -- -- 88
2019-04-03 00:00:00 14.6 0 Calma 14 Oeste 0 -- -- 79
2019-04-02 23:00:00 15.4 3 Oeste 20 Oeste 0 -- -- 74
2019-04-02 22:00:00 16.6 5 Oeste 10 Noroeste 0 -- -- 64
2019-04-02 21:00:00 18.7 6 Norte 13 Norte 0 -- -- 45
2019-04-02 20:00:00 20.4 3 Norte 8 Noroeste 0 -- -- 45
2019-04-02 19:00:00 21.6 0 Calma 9 Norte 0 -- -- 40
2019-04-02 18:00:00 21.8 3 Sudeste 7 Sudeste 0 -- -- 35
2019-04-02 17:00:00 22.1 3 Este 12 Oeste 0 -- -- 31
2019-04-02 16:00:00 22.4 5 Sudeste 13 Norte 0 -- -- 32
2019-04-02 15:00:00 21.9 5 Noroeste 13 Noroeste 0 -- -- 31
2019-04-02 14:00:00 20.4 4 Este 15 Norte 0 -- -- 59
2019-04-02 13:00:00 18 3 Sudeste 6 Este 0 -- -- 68
2019-04-02 12:00:00 16.2 3 Sudeste 11 Este 0 -- -- 79
2019-04-02 11:00:00 14.7 5 Este 9 Este 0 -- -- 85
2019-04-02 10:00:00 11.2 4 Sudeste 8 Sudeste 0 -- -- 96
2019-04-02 09:00:00 9.5 2 Este 8 Este 0 -- -- 98
2019-04-02 08:00:00 9.3 0 Calma 4 Nordeste 0 -- -- 97
2019-04-02 07:00:00 9.6 0 Calma 4 Sur 0 -- -- 97
2019-04-02 06:00:00 10 0 Calma 6 Este 0 -- -- 96
2019-04-02 05:00:00 10.2 0 Calma 5 Nordeste 0 -- -- 96
2019-04-02 04:00:00 10.8 0 Calma 5 Este 0 -- -- 96
2019-04-02 03:00:00 11.5 0 Calma 4 Este 0 -- -- 96
2019-04-02 02:00:00 11.6 0 Calma 3 Nordeste 0 -- -- 95
2019-04-02 01:00:00 12.4 0 Calma 4 Norte 0 -- -- 95
2019-04-02 00:00:00 12.9 2 Norte 6 Nordeste 0 -- -- 93
2019-04-01 23:00:00 13.2 0 Calma 7 Sudoeste 0 -- -- 91
2019-04-01 22:00:00 13.8 2 Sudoeste 5 Oeste 0 -- -- 87
2019-04-01 21:00:00 15.4 4 Sudoeste 16 Sudoeste 0 -- -- 79
2019-04-01 20:00:00 17 8 Sudoeste 21 Sur 0 -- -- 69
2019-04-01 19:00:00 18.5 10 Sur 24 Sur 0 -- -- 64
2019-04-01 18:00:00 18.9 13 Sudoeste 32 Sur 0 -- -- 65
2019-04-01 17:00:00 19 14 Sur 31 Sudoeste 0 -- -- 64
2019-04-01 16:00:00 19.7 12 Sur 30 Sur 0 -- -- 61
2019-04-01 15:00:00 19.4 14 Sur 32 Sur 0 -- -- 62
2019-04-01 14:00:00 17.9 10 Sur 21 Sur 0 -- -- 73
2019-04-01 13:00:00 16.8 12 Sur 24 Sur 0 -- -- 77
2019-04-01 12:00:00 14.8 11 Sur 21 Sur 0 -- -- 91
2019-04-01 11:00:00 14.1 9 Sur 26 Sur 1.2 -- -- 92
2019-04-01 10:00:00 14.1 12 Sur 21 Sur 0 -- -- 90
2019-04-01 09:00:00 12.7 5 Sur 25 Sudeste 0.4 -- -- 92
2019-04-01 08:00:00 13.1 10 Sur 29 Sur 0 -- -- 90
2019-04-01 07:00:00 13.4 13 Sur 28 Sur 0 -- -- 90
2019-04-01 06:00:00 13.8 17 Sur 28 Sur 0.2 -- -- 90
2019-04-01 05:00:00 14.1 9 Sur 15 Sur 0 -- -- 90
2019-04-01 04:00:00 14 2 Este 6 Sudeste 0 -- -- 93
2019-04-01 03:00:00 14 8 Sudeste 19 Sur 0 -- -- 93
2019-04-01 02:00:00 13.8 10 Sur 17 Sur 0 -- -- 93
2019-04-01 01:00:00 14 4 Sur 16 Sur 0 -- -- 92
2019-04-01 00:00:00 14.8 7 Sur 12 Sur 0 -- -- 91
2019-03-31 23:00:00 15.2 0 Calma 9 Sur 0 -- -- 90
2019-03-31 22:00:00 15.8 5 Sur 12 Sur 0 -- -- 84
2019-03-31 21:00:00 16.2 5 Sudoeste 19 Sudoeste 0 -- -- 78
2019-03-31 20:00:00 18.1 9 Sudoeste 24 Sudoeste 0 -- -- 67
2019-03-31 19:00:00 20.2 6 Sudoeste 12 Sudoeste 0 -- -- 65
2019-03-31 18:00:00 18 2 Sur 8 Este 0 -- -- 75
2019-03-31 17:00:00 17.8 5 Este 17 Sur 3.2 -- -- 81
2019-03-31 16:00:00 20.5 3 Sur 18 Sudoeste 0 -- -- 52
2019-03-31 15:00:00 20.7 5 Sur 17 Sur 0 -- -- 52
2019-03-31 14:00:00 20.8 6 Este 12 Este 0 -- -- 54
2019-03-31 13:00:00 20 5 Este 11 Norte 0 -- -- 59
2019-03-31 12:00:00 17.5 5 Noroeste 11 Norte 0 -- -- 69
2019-03-31 11:00:00 16.4 2 Nordeste 10 Sudeste 0 -- -- 73
2019-03-31 10:00:00 13.4 2 Este 6 Este 0 -- -- 90
2019-03-31 09:00:00 12.3 0 Calma 3 Oeste 0 -- -- 92
2019-03-31 08:00:00 12.7 0 Calma 8 Este 0 -- -- 91
2019-03-31 07:00:00 13.3 0 Calma 10 Este 0 -- -- 91
2019-03-31 06:00:00 13.5 5 Este 11 Nordeste 0.2 -- -- 89
2019-03-31 05:00:00 13.8 3 Este 10 Nordeste 0.2 -- -- 86
2019-03-31 03:00:00 14.9 4 Nordeste 17 Nordeste 0 -- -- 72
2019-03-31 01:00:00 14.8 4 Norte 19 Nordeste 0 -- -- 72
2019-03-31 00:00:00 14.9 9 Este 24 Nordeste 0 -- -- 72
2019-03-30 23:00:00 15 4 Sur 20 Este 0 -- -- 66
2019-03-30 22:00:00 15.7 8 Este 20 Este 0 -- -- 67
2019-03-30 21:00:00 15.2 5 Nordeste 21 Nordeste 0 -- -- 71
2019-03-30 20:00:00 15.4 10 Este 28 Este 0 -- -- 69
2019-03-30 19:00:00 15.5 12 Este 36 Este 0 -- -- 68
2019-03-30 18:00:00 16 17 Este 39 Este 0 -- -- 66
2019-03-30 17:00:00 16.5 20 Este 40 Este 0 -- -- 63
2019-03-30 16:00:00 17.8 18 Este 40 Sudeste 0 -- -- 57
2019-03-30 15:00:00 18.2 26 Este 44 Este 0 -- -- 55
2019-03-30 14:00:00 19.1 20 Este 38 Este 0 -- -- 50
2019-03-30 13:00:00 18.1 28 Este 40 Sudeste 0 -- -- 50
2019-03-30 12:00:00 18 18 Este 37 Este 0 -- -- 52
2019-03-30 11:00:00 17.9 16 Este 33 Este 0 -- -- 51
2019-03-30 10:00:00 16.9 10 Este 30 Este 0 -- -- 54
2019-03-30 09:00:00 15.3 19 Este 38 Este 0 -- -- 60
2019-03-30 08:00:00 14.1 19 Este 48 Sudeste 0 -- -- 64
2019-03-30 07:00:00 13.8 34 Este 49 Este 0 -- -- 66
2019-03-30 06:00:00 13.7 36 Este 51 Este 5.4 -- -- 69
2019-03-30 05:00:00 14.3 17 Este 35 Este 0 -- -- 58
2019-03-30 04:00:00 14.3 16 Este 46 Este 0 -- -- 62
2019-03-30 03:00:00 14.5 19 Este 43 Este 0 -- -- 60
2019-03-30 02:00:00 14.8 26 Este 57 Este 0 -- -- 56
2019-03-30 01:00:00 14.6 37 Este 54 Sudeste 0 -- -- 60
2019-03-30 00:00:00 14.7 32 Este 61 Este 0 -- -- 60
2019-03-29 23:00:00 14.5 22 Este 39 Este 0 -- -- 61
2019-03-29 22:00:00 14.5 14 Este 38 Sudeste 0 -- -- 61
2019-03-29 21:00:00 14.4 19 Este 37 Este 0 -- -- 64
2019-03-29 20:00:00 14.6 21 Este 37 Este 0 -- -- 64
2019-03-29 19:00:00 15.4 28 Este 40 Sudeste 0 -- -- 60
2019-03-29 18:00:00 16.1 31 Este 42 Este 0 -- -- 59
2019-03-29 17:00:00 16.7 23 Este 39 Este 0 -- -- 57
2019-03-29 16:00:00 17.4 17 Este 37 Este 0 -- -- 53
2019-03-29 15:00:00 17.1 15 Este 31 Este 0 -- -- 53
2019-03-29 14:00:00 17.5 13 Este 37 Este 0 -- -- 52
2019-03-29 13:00:00 17.6 25 Este 43 Este 0 -- -- 51
2019-03-29 12:00:00 17.8 18 Este 35 Este 0 -- -- 49
2019-03-29 11:00:00 18 22 Este 38 Este 0 -- -- 50
2019-03-29 10:00:00 16.3 22 Este 38 Este 0 -- -- 55
2019-03-29 09:00:00 15.1 21 Este 51 Este 0 -- -- 56
2019-03-29 08:00:00 14.2 27 Este 42 Sudeste 0 -- -- 59
2019-03-29 07:00:00 13.9 21 Este 40 Sudeste 0 -- -- 60
2019-03-29 06:00:00 14.1 23 Este 41 Sudeste 0 -- -- 57
2019-03-29 05:00:00 14.1 19 Sudeste 44 Sudeste 0 -- -- 55
2019-03-29 04:00:00 14 23 Este 42 Este 0 -- -- 55
2019-03-29 03:00:00 13.9 26 Este 51 Sudeste 0 -- -- 52
2019-03-29 02:00:00 14.4 31 Este 51 Este 0 -- -- 44
2019-03-29 01:00:00 14.3 33 Este 65 Sudeste 0 -- -- 47
2019-03-29 00:00:00 14.4 26 Este 51 Este 0 -- -- 50
2019-03-28 23:00:00 14.9 27 Este 49 Sudeste 0 -- -- 48
2019-03-28 22:00:00 15.2 22 Este 44 Este 0 -- -- 37
2019-03-28 21:00:00 15.1 17 Este 43 Este 0 -- -- 37
2019-03-28 20:00:00 15.4 15 Este 41 Este 0 -- -- 35
2019-03-28 19:00:00 15.8 25 Este 45 Este 0 -- -- 38
2019-03-28 18:00:00 16.9 33 Este 49 Sudeste 0 -- -- 45
2019-03-28 17:00:00 17.9 34 Sudeste 47 Sudeste 0 -- -- 45
2019-03-28 16:00:00 19 26 Sudeste 45 Este 0 -- -- 41
2019-03-28 15:00:00 19.4 29 Sudeste 46 Sudeste 0 -- -- 37
2019-03-28 14:00:00 19 29 Sudeste 50 Este 0 -- -- 42
2019-03-28 13:00:00 18.1 28 Este 56 Este 0 -- -- 37
2019-03-28 12:00:00 17.3 35 Este 55 Este 0 -- -- 41
2019-03-28 11:00:00 16.8 25 Este 47 Este 0 -- -- 39
2019-03-28 10:00:00 15.7 25 Este 49 Este 0 -- -- 46
2019-03-28 09:00:00 14.4 32 Este 56 Sudeste 0 -- -- 49
2019-03-28 08:00:00 13.5 13 Este 39 Este 0 -- -- 57
2019-03-28 07:00:00 13.2 14 Este 28 Este 0 -- -- 56
2019-03-28 06:00:00 13.2 13 Este 39 Este 0 -- -- 55
2019-03-28 05:00:00 13.3 14 Este 32 Este 0 -- -- 53
2019-03-28 04:00:00 13.5 13 Este 31 Sudeste 0 -- -- 51
2019-03-28 03:00:00 13.8 20 Este 49 Este 0 -- -- 51
2019-03-28 02:00:00 14.1 27 Este 42 Sudeste 0 -- -- 58
2019-03-28 01:00:00 14.2 26 Este 44 Este 0 -- -- 59
2019-03-28 00:00:00 14.3 27 Este 41 Este 0 -- -- 61
2019-03-27 23:00:00 14.3 26 Este 37 Este 0 -- -- 61
2019-03-27 22:00:00 14.2 22 Este 37 Este 0 -- -- 57
2019-03-27 21:00:00 14.4 28 Sudeste 46 Sudeste 0 -- -- 53
2019-03-27 20:00:00 14.6 23 Sudeste 45 Sudeste 0 -- -- 47
2019-03-27 19:00:00 15.4 25 Sudeste 42 Sudeste 0 -- -- 47
2019-03-27 18:00:00 17.5 26 Sudeste 43 Sudeste 0 -- -- 39
2019-03-27 17:00:00 18.7 25 Sudeste 40 Este 0 -- -- 33
2019-03-27 16:00:00 19.2 25 Sudeste 40 Este 0 -- -- 30
2019-03-27 15:00:00 19.2 21 Sudeste 41 Este 0 -- -- 29
2019-03-27 14:00:00 19 16 Este 39 Este 0 -- -- 27
2019-03-27 13:00:00 18.3 19 Este 53 Sudeste 0 -- -- 32
2019-03-27 12:00:00 17.3 20 Este 40 Sudeste 0 -- -- 37
2019-03-27 11:00:00 16.4 20 Este 43 Este 0 -- -- 41
2019-03-27 10:00:00 15.4 21 Este 39 Este 0 -- -- 46
2019-03-27 09:00:00 14.7 14 Este 43 Este 0 -- -- 46
2019-03-27 08:00:00 14.3 13 Este 48 Este 0 -- -- 47
2019-03-27 07:00:00 14.5 15 Este 45 Sudeste 0 -- -- 40
2019-03-27 06:00:00 14.8 26 Este 51 Este 0 -- -- 42
2019-03-27 05:00:00 14.8 21 Este 45 Este 0 -- -- 45
2019-03-27 04:00:00 14.4 15 Sudeste 29 Sudeste 0 -- -- 46
2019-03-27 03:00:00 14.6 16 Sudeste 38 Sudeste 0 -- -- 49
2019-03-27 02:00:00 15.4 23 Sudeste 49 Sudeste 0 -- -- 38
2019-03-27 01:00:00 15.2 33 Sudeste 57 Sudeste 0 -- -- 47
2019-03-27 00:00:00 15.4 21 Sudeste 50 Sudeste 0 -- -- 48
2019-03-26 23:00:00 15.6 32 Sudeste 58 Este 0 -- -- 60
2019-03-26 22:00:00 15.7 26 Sudeste 55 Sudeste 0 -- -- 61
2019-03-26 21:00:00 16.1 27 Sudeste 50 Sudeste 0 -- -- 60
2019-03-26 20:00:00 16.2 20 Este 37 Este 0 -- -- 57
2019-03-26 19:00:00 17 17 Este 50 Este 0 -- -- 53
2019-03-26 18:00:00 17.2 18 Este 44 Este 0 -- -- 51
2019-03-26 17:00:00 17.6 22 Este 52 Este 0 -- -- 48
2019-03-26 16:00:00 18.3 37 Este 66 Este 0 -- -- 43
2019-03-26 15:00:00 19.4 35 Este 64 Este 0 -- -- 38
2019-03-26 14:00:00 19.3 41 Este 70 Este 0 -- -- 36
2019-03-26 13:00:00 19.3 42 Este 72 Este 0 -- -- 40
2019-03-26 12:00:00 20.2 39 Este 64 Este 0 -- -- 39
2019-03-26 11:00:00 20.3 37 Este 60 Este 0 -- -- 38
2019-03-26 10:00:00 19.3 36 Este 60 Este 0 -- -- 42
2019-03-26 09:00:00 18.2 33 Este 50 Este 0 -- -- 45
2019-03-26 08:00:00 17.4 26 Este 43 Este 0 -- -- 49
2019-03-26 07:00:00 17.1 14 Este 29 Este 0 -- -- 50
2019-03-26 06:00:00 17 12 Este 33 Este 0 -- -- 50
2019-03-26 05:00:00 17 17 Este 38 Este 0 -- -- 52
2019-03-26 04:00:00 17.4 22 Este 48 Este 0 -- -- 50
2019-03-26 03:00:00 17.6 15 Este 37 Este 0 -- -- 48
2019-03-26 02:00:00 17.8 23 Este 51 Este 0 -- -- 47
2019-03-26 01:00:00 17.5 21 Este 55 Este 0 -- -- 49
2019-03-26 00:00:00 17.7 23 Este 46 Este 0 -- -- 49
2019-03-25 23:00:00 17.3 19 Este 40 Sudeste 0 -- -- 49
2019-03-25 22:00:00 17.2 13 Este 37 Este 0 -- -- 50
2019-03-25 21:00:00 17.2 16 Este 40 Este 0 -- -- 52
2019-03-25 20:00:00 17.6 9 Este 37 Sudeste 0 -- -- 50
2019-03-25 19:00:00 18.4 22 Este 43 Sudeste 0 -- -- 47
2019-03-25 18:00:00 19.9 25 Sudeste 44 Sudeste 0 -- -- 44
2019-03-25 17:00:00 20.9 24 Sudeste 43 Este 0 -- -- 43
2019-03-25 16:00:00 21.2 24 Sudeste 45 Sudeste 0 -- -- 42
2019-03-25 15:00:00 21.2 23 Este 38 Este 0 -- -- 42
2019-03-25 14:00:00 21.2 24 Sudeste 36 Sudeste 0 -- -- 42
2019-03-25 13:00:00 21.4 20 Sudeste 32 Sudeste 0 -- -- 42
2019-03-25 12:00:00 20.6 22 Sudeste 40 Este 0 -- -- 45
2019-03-25 11:00:00 19.1 22 Este 33 Este 0 -- -- 48
2019-03-25 10:00:00 18.5 7 Este 24 Este 0 -- -- 50
2019-03-25 09:00:00 15.2 5 Nordeste 12 Nordeste 0 -- -- 61
2019-03-25 08:00:00 13.1 4 Nordeste 10 Este 0 -- -- 68
2019-03-25 07:00:00 13.1 5 Nordeste 10 Nordeste 0 -- -- 69
2019-03-25 06:00:00 13.2 3 Nordeste 9 Nordeste 0 -- -- 70
2019-03-25 05:00:00 13.2 2 Nordeste 10 Este 0 -- -- 66
2019-03-25 04:00:00 13.4 4 Este 11 Sudeste 0 -- -- 72
2019-03-25 03:00:00 14 2 Norte 15 Nordeste 0 -- -- 66
2019-03-25 02:00:00 13.7 6 Nordeste 14 Nordeste 0 -- -- 65
2019-03-25 01:00:00 14.6 5 Nordeste 17 Este 0 -- -- 57
2019-03-25 00:00:00 14.6 9 Este 16 Sudeste 0 -- -- 58
2019-03-24 23:00:00 13.5 2 Sudeste 10 Nordeste 0 -- -- 60
2019-03-24 22:00:00 13.9 0 Calma 12 Este 0 -- -- 59
2019-03-24 21:00:00 15.7 0 Calma 25 Este 0 -- -- 57
2019-03-24 20:00:00 16.5 5 Este 30 Este 0 -- -- 55
2019-03-24 19:00:00 17.7 21 Sudeste 37 Sudeste 0 -- -- 52
2019-03-24 18:00:00 19 23 Sudeste 39 Sudeste 0 -- -- 50
2019-03-24 17:00:00 19.5 27 Sudeste 50 Este 0 -- -- 48
2019-03-24 16:00:00 20 26 Sudeste 44 Sudeste 0 -- -- 47
2019-03-24 15:00:00 19.4 32 Este 48 Este 0 -- -- 49
2019-03-24 14:00:00 18.9 31 Este 56 Este 0 -- -- 49
2019-03-24 13:00:00 18.3 39 Este 55 Este 0 -- -- 54
2019-03-24 12:00:00 18.2 39 Este 57 Este 0 -- -- 55
2019-03-24 11:00:00 17.8 35 Este 54 Este 0 -- -- 57
2019-03-24 10:00:00 17.3 29 Este 57 Este 0 -- -- 58
2019-03-24 09:00:00 16.3 31 Este 45 Este 0 -- -- 59
2019-03-24 08:00:00 15.3 28 Este 49 Este 0 -- -- 64
2019-03-24 07:00:00 15.1 28 Sudeste 48 Sudeste 0 -- -- 61
2019-03-24 06:00:00 15 23 Este 41 Este 0 -- -- 64
2019-03-24 05:00:00 14.9 22 Sudeste 46 Este 0 -- -- 62
2019-03-24 04:00:00 14.8 30 Sudeste 51 Este 0 -- -- 62
2019-03-24 03:00:00 14.9 33 Este 60 Este 0 -- -- 63
2019-03-24 02:00:00 15 39 Sudeste 63 Este 0 -- -- 63
2019-03-24 01:00:00 15.2 37 Este 55 Este 0 -- -- 63
2019-03-24 00:00:00 15.3 29 Este 45 Este 0 -- -- 61
2019-03-23 23:00:00 15.4 21 Este 41 Sudeste 0 -- -- 58
2019-03-23 22:00:00 15.3 21 Este 33 Sudeste 0 -- -- 55
2019-03-23 21:00:00 15.4 10 Este 29 Sudeste 0 -- -- 51
2019-03-23 20:00:00 15.6 16 Sudeste 30 Sudeste 0 -- -- 53
2019-03-23 19:00:00 16.6 18 Sudeste 38 Este 0 -- -- 50
2019-03-23 18:00:00 17.7 14 Este 37 Este 0 -- -- 46
2019-03-23 17:00:00 18.7 25 Este 39 Este 0 -- -- 41
2019-03-23 16:00:00 19.2 15 Este 42 Este 0 -- -- 44
2019-03-23 15:00:00 19.1 24 Este 48 Este 0 -- -- 45
2019-03-23 14:00:00 18.7 32 Este 56 Este 0 -- -- 46
2019-03-23 13:00:00 19 24 Este 48 Sudeste 0 -- -- 47
2019-03-23 12:00:00 18.8 23 Este 41 Sudeste 0 -- -- 44
2019-03-23 11:00:00 18 17 Este 42 Este 0 -- -- 46
2019-03-23 10:00:00 17.5 15 Este 41 Sudeste 0 -- -- 50
2019-03-23 09:00:00 16 10 Este 24 Este 0 -- -- 53
2019-03-23 08:00:00 14.5 13 Este 31 Este 0 -- -- 58
2019-03-23 07:00:00 14.1 12 Este 23 Sudeste 0 -- -- 59
2019-03-23 06:00:00 14.2 10 Este 22 Nordeste 0 -- -- 58
2019-03-23 05:00:00 14.7 11 Este 25 Este 0 -- -- 55
2019-03-23 04:00:00 14.7 8 Este 35 Este 0 -- -- 54
2019-03-23 03:00:00 14.4 6 Este 19 Este 0 -- -- 55
2019-03-23 02:00:00 13.9 8 Sudeste 21 Este 0 -- -- 52
2019-03-23 01:00:00 14.2 9 Este 27 Nordeste 0 -- -- 49
2019-03-23 00:00:00 14.3 9 Este 25 Este 0 -- -- 49
2019-03-22 23:00:00 14 14 Sudeste 24 Este 0 -- -- 51
2019-03-22 22:00:00 14.3 12 Este 24 Este 0 -- -- 54
2019-03-22 21:00:00 14.4 9 Este 25 Este 0 -- -- 53
2019-03-22 20:00:00 15.3 17 Sudeste 42 Sudeste 0 -- -- 54
2019-03-22 19:00:00 16.3 24 Este 40 Este 0 -- -- 47
2019-03-22 18:00:00 18.6 16 Sudeste 37 Sudeste 0 -- -- 40
2019-03-22 17:00:00 18.9 24 Sudeste 45 Este 0 -- -- 42
2019-03-22 16:00:00 18.9 25 Sudeste 36 Sudeste 0 -- -- 42
2019-03-22 15:00:00 20.3 18 Sudeste 33 Este 0 -- -- 40
2019-03-22 14:00:00 20.3 18 Sudeste 31 Sudeste 0 -- -- 37
2019-03-22 13:00:00 19.1 9 Este 25 Este 0 -- -- 38
2019-03-22 12:00:00 18.8 10 Este 27 Este 0 -- -- 38
2019-03-22 11:00:00 17.6 11 Este 24 Este 0 -- -- 43
2019-03-22 10:00:00 16.3 10 Sudeste 17 Sudeste 0 -- -- 43
2019-03-22 09:00:00 12.8 3 Nordeste 8 Nordeste 0 -- -- 54
2019-03-22 08:00:00 9.9 0 Calma 7 Nordeste 0 -- -- 70
2019-03-22 07:00:00 9.9 0 Calma 9 Nordeste 0 -- -- 65
2019-03-22 06:00:00 10.3 2 Norte 8 Norte 0 -- -- 65
2019-03-22 05:00:00 11.1 0 Calma 12 Nordeste 0 -- -- 64
2019-03-22 04:00:00 12.6 8 Nordeste 24 Sudeste 0 -- -- 59
2019-03-22 03:00:00 13.2 10 Este 24 Este 0 -- -- 57
2019-03-22 02:00:00 13.4 12 Este 29 Este 0 -- -- 56
2019-03-22 01:00:00 13.1 16 Sudeste 30 Este 0 -- -- 56
2019-03-22 00:00:00 13.3 21 Este 41 Este 0 -- -- 54
2019-03-21 23:00:00 13.6 26 Este 38 Sudeste 0 -- -- 54
2019-03-21 22:00:00 13.8 20 Este 40 Sudeste 0 -- -- 51
2019-03-21 21:00:00 13.9 20 Sudeste 33 Sudeste 0 -- -- 51
2019-03-21 20:00:00 14.1 17 Sudeste 39 Este 0 -- -- 47
2019-03-21 19:00:00 15 23 Sudeste 42 Este 0 -- -- 46
2019-03-21 18:00:00 16.6 22 Sudeste 39 Este 0 -- -- 42
2019-03-21 17:00:00 17.5 23 Este 37 Sudeste 0 -- -- 37
2019-03-21 16:00:00 18.6 23 Sudeste 38 Sudeste 0 -- -- 34
2019-03-21 15:00:00 18.3 23 Sudeste 36 Este 0 -- -- 33
2019-03-21 14:00:00 18.2 22 Sudeste 36 Sudeste 0 -- -- 33
2019-03-21 13:00:00 17.6 24 Este 37 Este 0 -- -- 35
2019-03-21 12:00:00 16.7 27 Este 41 Este 0 -- -- 37
2019-03-21 11:00:00 16.2 25 Sudeste 39 Sudeste 0 -- -- 38
2019-03-21 10:00:00 15.3 9 Este 23 Este 0 -- -- 43
2019-03-21 09:00:00 12.6 5 Nordeste 14 Este 0 -- -- 57
2019-03-21 08:00:00 10.6 5 Este 13 Nordeste 0 -- -- 68
2019-03-21 07:00:00 10 3 Noroeste 9 Este 0 -- -- 71
2019-03-21 06:00:00 11.5 6 Este 17 Este 0 -- -- 69
2019-03-21 05:00:00 11.7 7 Este 18 Este 0 -- -- 66
2019-03-21 04:00:00 12.5 10 Este 44 Este 0 -- -- 64
2019-03-21 03:00:00 13.1 29 Sudeste 60 Sudeste 0 -- -- 61
2019-03-21 02:00:00 13.3 30 Sudeste 46 Sudeste 0 -- -- 60
2019-03-21 01:00:00 13.1 27 Sudeste 41 Sudeste 0 -- -- 60
2019-03-21 00:00:00 13.2 21 Sudeste 36 Este 0 -- -- 57
2019-03-20 23:00:00 13.5 21 Este 43 Este 0 -- -- 57
2019-03-20 22:00:00 13.9 19 Este 50 Este 0 -- -- 53
2019-03-20 21:00:00 13.8 14 Este 33 Este 0 -- -- 55
2019-03-20 20:00:00 14.4 21 Este 30 Sudeste 0 -- -- 49
2019-03-20 19:00:00 15.4 21 Sudeste 34 Sudeste 0 -- -- 48
2019-03-20 18:00:00 16.8 26 Sudeste 41 Este 0 -- -- 45
2019-03-20 17:00:00 17.2 23 Este 37 Sudeste 0 -- -- 44
2019-03-20 16:00:00 17.2 19 Sudeste 37 Sudeste 0 -- -- 45
2019-03-20 15:00:00 18 21 Sudeste 37 Sudeste 0 -- -- 40
2019-03-20 14:00:00 18.2 23 Este 36 Este 0 -- -- 38
2019-03-20 13:00:00 18.3 22 Sudeste 37 Este 0 -- -- 43
2019-03-20 12:00:00 17.5 23 Sudeste 39 Sudeste 0 -- -- 42
2019-03-20 11:00:00 17 14 Este 30 Este 0 -- -- 47
2019-03-20 10:00:00 16.4 5 Este 10 Nordeste 0 -- -- 51
2019-03-20 09:00:00 13.6 4 Este 9 Este 0 -- -- 63
2019-03-20 08:00:00 11 0 Calma 5 Sur 0 -- -- 76
2019-03-20 07:00:00 11.2 0 Calma 12 Sudeste 0 -- -- 77
2019-03-20 06:00:00 12.9 8 Este 16 Este 0 -- -- 72
2019-03-20 05:00:00 13.1 8 Este 22 Este 0 -- -- 69
2019-03-20 04:00:00 13.5 9 Este 26 Este 0 -- -- 69
2019-03-20 03:00:00 14 15 Este 26 Sudeste 0 -- -- 73
2019-03-20 02:00:00 11.6 2 Nordeste 10 Nordeste 0 -- -- 80
2019-03-20 01:00:00 12.2 2 Norte 12 Nordeste 0 -- -- 69
2019-03-20 00:00:00 12.6 3 Nordeste 11 Nordeste 0 -- -- 55
2019-03-19 23:00:00 13.6 3 Este 10 Este 0 -- -- 46
2019-03-19 22:00:00 15 4 Norte 10 Norte 0 -- -- 36
2019-03-19 21:00:00 16 3 Norte 14 Norte 0 -- -- 37
2019-03-19 20:00:00 17.4 5 Norte 22 Nordeste 0 -- -- 30
2019-03-19 19:00:00 18.5 4 Noroeste 24 Norte 0 -- -- 28
2019-03-19 18:00:00 20.9 8 Norte 34 Norte 0 -- -- 24
2019-03-19 17:00:00 21.7 13 Norte 39 Noroeste 0 -- -- 24
2019-03-19 16:00:00 22.1 14 Norte 32 Norte 0 -- -- 20
2019-03-19 15:00:00 22.4 12 Norte 28 Noroeste 0 -- -- 26
2019-03-19 14:00:00 21.4 13 Norte 26 Noroeste 0 -- -- 34
2019-03-19 13:00:00 20.8 10 Norte 20 Norte 0 -- -- 46
2019-03-19 12:00:00 19.2 9 Norte 19 Nordeste 0 -- -- 62
2019-03-19 11:00:00 16.9 4 Sudeste 8 Sudeste 0 -- -- 74
2019-03-19 10:00:00 15.7 6 Este 12 Este 0 -- -- 80
2019-03-19 09:00:00 12.7 4 Este 10 Este 0 -- -- 90
2019-03-19 08:00:00 10.5 0 Calma 5 Este 0 -- -- 96
2019-03-19 07:00:00 10.6 0 Calma 5 Sudeste 0 -- -- 96
2019-03-19 06:00:00 10.9 0 Calma 4 Sur 0 -- -- 95
2019-03-19 05:00:00 11 0 Calma 5 Sudoeste 0 -- -- 94
2019-03-19 04:00:00 11.4 0 Calma 5 Nordeste 0 -- -- 91
2019-03-19 03:00:00 12 0 Calma 12 Este 0 -- -- 89
2019-03-19 02:00:00 12.8 6 Este 13 Este 0 -- -- 89
2019-03-19 01:00:00 12.8 3 Norte 9 Norte 0 -- -- 86
2019-03-19 00:00:00 13 0 Calma 5 Nordeste 0 -- -- 88